Aviation Digital Data Service (ADDS)

Output produced by METARs form (0109 UTC 14 May 2021)
found at http://aviationweather.gov/metar/data/
 
KMSY 132326Z 1400/1506 02007KT P6SM SCT035 BKN050 
     FM142200 06007KT P6SM SKC